Time;durP1;ratioP1;P1;durP2;ratioP2;P2;SDS_P1;SDS_P2;PMS_P1;PMS_P2;Temp;Humidity;BMP_temperature;BMP_pressure;BME280_temperature;BME280_humidity;BME280_pressure;Samples;Min_cycle;Max_cycle;Signal;HPM_P1;HPM_P2
2023/03/21 00:02:12;;;;;;;2.10;1.73;;;8.90;99.90;;;;;;5050709;28;20205;-74
2023/03/21 00:04:38;;;;;;;2.20;1.65;;;8.80;99.90;;;;;;5049765;28;20224;-74
2023/03/21 00:07:05;;;;;;;2.10;1.70;;;8.80;99.90;;;;;;5049060;28;20212;-75
2023/03/21 00:09:32;;;;;;;1.83;1.73;;;8.80;99.90;;;;;;5049698;28;20197;-75
2023/03/21 00:12:00;;;;;;;2.50;2.30;;;8.80;99.90;;;;;;5048947;28;20204;-75
2023/03/21 00:14:29;;;;;;;2.45;2.25;;;8.70;99.90;;;;;;5050054;28;20220;-75
2023/03/21 00:16:56;;;;;;;1.88;1.77;;;8.70;99.90;;;;;;5049557;28;20197;-75
2023/03/21 00:19:25;;;;;;;2.67;2.22;;;8.80;99.90;;;;;;5050463;28;20707;-74
2023/03/21 00:21:54;;;;;;;2.30;2.10;;;8.80;99.90;;;;;;5049631;28;20288;-75
2023/03/21 00:24:21;;;;;;;3.67;2.35;;;8.80;99.90;;;;;;5050034;28;20221;-75
2023/03/21 00:26:48;;;;;;;3.58;3.28;;;8.80;99.90;;;;;;5050521;28;20244;-75
2023/03/21 00:29:15;;;;;;;2.42;2.22;;;8.80;99.90;;;;;;5050237;28;20198;-74
2023/03/21 00:31:43;;;;;;;2.08;1.88;;;8.80;99.90;;;;;;5050099;28;20304;-75
2023/03/21 00:34:10;;;;;;;3.38;2.30;;;8.80;99.90;;;;;;5049488;28;20221;-75
2023/03/21 00:36:37;;;;;;;2.25;2.05;;;8.80;99.90;;;;;;5049847;28;20236;-75
2023/03/21 00:39:05;;;;;;;2.45;2.15;;;8.80;99.90;;;;;;5048683;28;20226;-75
2023/03/21 00:41:31;;;;;;;2.40;2.20;;;8.80;99.90;;;;;;5048587;28;20197;-75
2023/03/21 00:43:58;;;;;;;2.40;2.20;;;8.80;99.90;;;;;;5049393;28;20225;-74
2023/03/21 00:46:25;;;;;;;4.10;2.42;;;8.70;99.90;;;;;;5049117;28;20197;-75
2023/03/21 00:48:53;;;;;;;1.88;1.67;;;8.70;99.90;;;;;;5049516;28;20702;-74
2023/03/21 00:51:25;;;;;;;2.30;2.10;;;8.70;99.90;;;;;;5049319;28;20266;-74
2023/03/21 00:53:53;;;;;;;2.33;2.10;;;8.70;99.90;;;;;;5049470;28;20282;-74
2023/03/21 00:56:19;;;;;;;2.45;2.25;;;8.70;99.90;;;;;;5049650;28;20232;-75
2023/03/21 00:58:46;;;;;;;2.35;2.10;;;8.70;99.90;;;;;;5049589;28;20213;-75
2023/03/21 01:01:13;;;;;;;2.40;1.95;;;8.70;99.90;;;;;;5049214;28;20239;-75
2023/03/21 01:03:49;;;;;;;2.30;2.05;;;8.70;99.90;;;;;;5049160;28;20236;-75
2023/03/21 01:06:19;;;;;;;3.47;2.03;;;8.70;99.90;;;;;;5044452;28;20211;-75
2023/03/21 01:08:47;;;;;;;2.88;2.30;;;8.70;99.90;;;;;;5049097;28;20200;-75
2023/03/21 01:11:16;;;;;;;3.15;2.67;;;8.60;99.90;;;;;;5050570;28;20208;-75
2023/03/21 01:13:43;;;;;;;2.05;1.85;;;8.60;99.90;;;;;;5051590;28;20304;-75
2023/03/21 01:16:10;;;;;;;2.65;1.90;;;8.70;99.90;;;;;;5052065;28;20201;-75
2023/03/21 01:18:40;;;;;;;2.50;1.92;;;8.60;99.90;;;;;;5050735;28;20613;-75
2023/03/21 01:21:11;;;;;;;2.63;1.73;;;8.60;99.90;;;;;;5031993;28;20198;-75
2023/03/21 01:23:40;;;;;;;2.58;1.80;;;8.60;99.90;;;;;;5030695;28;20905;-75
2023/03/21 01:26:08;;;;;;;2.35;2.05;;;8.60;99.90;;;;;;5034067;28;20280;-75
2023/03/21 01:28:36;;;;;;;3.80;2.10;;;8.60;99.90;;;;;;5050244;28;20201;-75
2023/03/21 01:31:04;;;;;;;3.28;2.15;;;8.60;99.90;;;;;;5050374;28;20197;-75
2023/03/21 01:33:33;;;;;;;3.13;1.80;;;8.60;99.90;;;;;;5013486;28;1037908;-75
2023/03/21 01:36:00;;;;;;;2.50;1.90;;;8.60;99.90;;;;;;5022121;28;20208;-75
2023/03/21 01:38:28;;;;;;;4.43;2.45;;;8.60;99.90;;;;;;5037740;28;20225;-75
2023/03/21 01:40:56;;;;;;;2.20;1.80;;;8.60;99.90;;;;;;5049519;28;20213;-75
2023/03/21 01:43:27;;;;;;;2.67;2.00;;;8.50;99.90;;;;;;5049408;28;20197;-75
2023/03/21 01:46:31;;;;;;;1.90;1.80;;;8.60;99.90;;;;;;5047637;28;20231;-75
2023/03/21 01:49:01;;;;;;;1.95;1.63;;;8.60;99.90;;;;;;5019603;28;20642;-74
2023/03/21 01:51:30;;;;;;;2.95;1.73;;;8.60;99.90;;;;;;5028531;28;20194;-74
2023/03/21 01:53:59;;;;;;;2.47;2.00;;;8.50;99.90;;;;;;5031420;28;20232;-74
2023/03/21 01:56:31;;;;;;;1.50;1.40;;;8.60;99.90;;;;;;5030825;28;20205;-75
2023/03/21 01:59:05;;;;;;;2.28;2.08;;;8.60;99.90;;;;;;5021240;28;20624;-75
2023/03/21 02:01:33;;;;;;;2.08;1.88;;;8.60;99.90;;;;;;5027456;28;20987;-75
2023/03/21 02:04:02;;;;;;;2.22;2.03;;;8.60;99.90;;;;;;5028789;28;20921;-75
2023/03/21 02:06:38;;;;;;;2.30;2.10;;;8.50;99.90;;;;;;5027854;28;20728;-75
2023/03/21 02:09:09;;;;;;;3.40;2.00;;;8.50;99.90;;;;;;5028359;28;20209;-75
2023/03/21 02:11:38;;;;;;;2.92;2.00;;;8.40;99.90;;;;;;5027211;28;20218;-75
2023/03/21 02:16:42;;;;;;;2.10;1.90;;;8.40;99.90;;;;;;5047123;28;20213;-69
2023/03/21 02:19:45;;;;;;;1.70;1.60;;;8.40;99.90;;;;;;5048404;28;20220;-69
2023/03/21 02:22:39;;;;;;;2.58;2.10;;;8.40;99.90;;;;;;5024018;28;20200;-68
2023/03/21 02:25:44;;;;;;;2.38;2.17;;;8.40;99.90;;;;;;5049712;28;20244;-69
2023/03/21 02:28:16;;;;;;;1.77;1.60;;;8.30;99.90;;;;;;5039476;28;20197;-68
2023/03/21 02:31:05;;;;;;;2.20;2.00;;;8.30;99.90;;;;;;5049534;28;20201;-69
2023/03/21 02:33:57;;;;;;;2.33;2.10;;;8.30;99.90;;;;;;5049428;28;20546;-69
2023/03/21 02:36:27;;;;;;;3.25;2.20;;;8.30;99.90;;;;;;5049708;28;20564;-68
2023/03/21 02:39:03;;;;;;;2.15;1.95;;;8.30;99.90;;;;;;5049283;28;20565;-68
2023/03/21 02:41:36;;;;;;;3.85;1.60;;;8.30;99.90;;;;;;5049725;28;20666;-68
2023/03/21 02:44:09;;;;;;;2.83;2.00;;;8.30;99.90;;;;;;5049533;28;20217;-68
2023/03/21 02:46:42;;;;;;;2.55;2.22;;;8.30;99.90;;;;;;5058245;28;20212;-69
2023/03/21 02:49:14;;;;;;;2.28;1.88;;;8.30;99.90;;;;;;5069549;28;20200;-71
2023/03/21 02:51:43;;;;;;;1.88;1.73;;;8.30;99.90;;;;;;5068958;28;20200;-68
2023/03/21 02:54:15;;;;;;;3.38;2.10;;;8.30;99.90;;;;;;5069349;28;20212;-68
2023/03/21 02:56:42;;;;;;;1.85;1.70;;;8.30;99.90;;;;;;5069351;28;20204;-68
2023/03/21 02:59:10;;;;;;;2.55;1.90;;;8.30;99.90;;;;;;5069517;28;20208;-68
2023/03/21 03:01:36;;;;;;;5.53;2.00;;;8.30;99.90;;;;;;5069418;28;20666;-68
2023/03/21 03:04:03;;;;;;;2.35;2.15;;;8.30;99.90;;;;;;5072399;28;20274;-68
2023/03/21 03:06:40;;;;;;;2.97;2.05;;;8.30;99.90;;;;;;5072820;28;20200;-68
2023/03/21 03:09:21;;;;;;;2.63;2.13;;;8.30;99.90;;;;;;5073241;28;20196;-68
2023/03/21 03:11:56;;;;;;;2.10;1.90;;;8.30;99.90;;;;;;5073085;28;20204;-68
2023/03/21 03:14:47;;;;;;;2.95;2.30;;;8.30;99.90;;;;;;5072962;28;20589;-68
2023/03/21 03:17:29;;;;;;;3.05;2.22;;;8.30;99.90;;;;;;5072835;28;20796;-69
2023/03/21 03:20:15;;;;;;;2.25;2.08;;;8.20;99.90;;;;;;5072799;28;20212;-69
2023/03/21 03:22:49;;;;;;;4.00;2.13;;;8.20;99.90;;;;;;5072893;28;20210;-69
2023/03/21 03:25:23;;;;;;;2.00;1.65;;;8.20;99.90;;;;;;5072655;28;20216;-69
2023/03/21 03:27:52;;;;;;;2.13;1.92;;;8.20;99.90;;;;;;5072700;28;20210;-69
2023/03/21 03:30:19;;;;;;;4.13;2.53;;;8.30;99.90;;;;;;5072940;28;20189;-69
2023/03/21 03:32:51;;;;;;;2.17;1.98;;;8.20;99.90;;;;;;5072877;28;20600;-69
2023/03/21 03:35:20;;;;;;;2.78;2.30;;;8.30;99.90;;;;;;5072449;28;20217;-68
2023/03/21 03:37:50;;;;;;;3.85;2.67;;;8.30;99.90;;;;;;5072645;28;20205;-69
2023/03/21 03:40:23;;;;;;;2.70;2.08;;;8.30;99.90;;;;;;5071991;28;20216;-69
2023/03/21 03:42:53;;;;;;;2.75;2.55;;;8.30;99.90;;;;;;5072429;28;20211;-69
2023/03/21 03:45:22;;;;;;;2.45;2.25;;;8.30;99.90;;;;;;5072641;28;20216;-69
2023/03/21 03:47:54;;;;;;;2.60;2.10;;;8.30;99.90;;;;;;5072120;28;20681;-69
2023/03/21 03:50:28;;;;;;;2.38;2.15;;;8.30;99.90;;;;;;5072483;28;20563;-70
2023/03/21 03:53:01;;;;;;;3.13;2.55;;;8.30;99.90;;;;;;5072250;28;20220;-69
2023/03/21 03:55:33;;;;;;;2.63;2.40;;;8.20;99.90;;;;;;5072436;28;20631;-68
2023/03/21 03:58:00;;;;;;;2.78;2.47;;;8.30;99.90;;;;;;5072298;28;20196;-69
2023/03/21 04:00:27;;;;;;;2.85;2.65;;;8.30;99.90;;;;;;5072499;28;20220;-69
2023/03/21 04:02:54;;;;;;;3.25;2.13;;;8.30;99.90;;;;;;5072122;28;20192;-69
2023/03/21 04:05:21;;;;;;;2.55;2.10;;;8.30;99.90;;;;;;5072155;28;20273;-69
2023/03/21 04:07:49;;;;;;;2.42;2.22;;;8.30;99.90;;;;;;5072232;28;20281;-69
2023/03/21 04:10:17;;;;;;;2.85;2.55;;;8.30;99.90;;;;;;5072161;28;20204;-69
2023/03/21 04:12:45;;;;;;;2.42;2.15;;;8.30;99.90;;;;;;5072054;28;20224;-69
2023/03/21 04:15:12;;;;;;;2.40;2.20;;;8.30;99.90;;;;;;5070558;28;20223;-69
2023/03/21 04:17:39;;;;;;;2.97;2.20;;;8.20;99.90;;;;;;5071241;28;20201;-69
2023/03/21 04:20:07;;;;;;;2.47;2.10;;;8.20;99.90;;;;;;5071973;28;20453;-69
2023/03/21 04:22:34;;;;;;;2.80;2.30;;;8.20;99.90;;;;;;5072069;28;20204;-69
2023/03/21 04:25:01;;;;;;;4.13;2.13;;;8.30;99.90;;;;;;5071726;28;20224;-69
2023/03/21 04:27:28;;;;;;;3.15;2.40;;;8.30;99.90;;;;;;5071850;28;20573;-69
2023/03/21 04:29:56;;;;;;;1.92;1.83;;;8.20;99.90;;;;;;5069555;28;20199;-69
2023/03/21 04:32:25;;;;;;;2.70;2.33;;;8.20;99.90;;;;;;5071871;28;20223;-69
2023/03/21 04:34:53;;;;;;;2.70;2.25;;;8.10;99.90;;;;;;5060291;28;20562;-69
2023/03/21 04:37:22;;;;;;;3.25;2.25;;;8.10;99.90;;;;;;5067283;28;20241;-69
2023/03/21 04:39:49;;;;;;;2.60;2.38;;;8.00;99.90;;;;;;5065333;28;20216;-70
2023/03/21 04:42:17;;;;;;;2.92;2.50;;;8.00;99.90;;;;;;5068064;28;20254;-69
2023/03/21 04:44:44;;;;;;;2.00;1.80;;;7.90;99.90;;;;;;5065349;28;20270;-69
2023/03/21 04:47:14;;;;;;;4.00;2.92;;;7.80;99.90;;;;;;5064340;28;20204;-69
2023/03/21 04:49:41;;;;;;;2.78;2.30;;;7.70;99.90;;;;;;5066046;28;20196;-69
2023/03/21 04:52:08;;;;;;;2.30;2.10;;;7.60;99.90;;;;;;5066840;28;20192;-69
2023/03/21 04:54:35;;;;;;;2.75;2.10;;;7.50;99.90;;;;;;5060054;28;20217;-70
2023/03/21 04:57:03;;;;;;;2.05;1.85;;;7.40;99.90;;;;;;5050216;28;20577;-69
2023/03/21 04:59:30;;;;;;;2.78;1.90;;;7.30;99.90;;;;;;5051617;28;20205;-69
2023/03/21 05:01:57;;;;;;;2.15;1.92;;;7.20;99.90;;;;;;5050630;28;20213;-69
2023/03/21 05:04:26;;;;;;;2.30;2.10;;;7.10;99.90;;;;;;5050813;28;20266;-69
2023/03/21 05:06:53;;;;;;;2.63;2.00;;;7.00;99.90;;;;;;5050622;28;20208;-69
2023/03/21 05:09:21;;;;;;;3.03;1.70;;;6.90;99.90;;;;;;5051308;28;20197;-69
2023/03/21 05:11:48;;;;;;;2.30;2.10;;;6.90;99.90;;;;;;5050971;28;20432;-70
2023/03/21 05:14:17;;;;;;;3.75;2.70;;;6.80;99.90;;;;;;5050418;28;20826;-69
2023/03/21 05:16:47;;;;;;;2.28;2.08;;;6.80;99.90;;;;;;5051219;28;20205;-68
2023/03/21 05:19:14;;;;;;;3.20;2.30;;;6.70;99.90;;;;;;5050418;28;20634;-69
2023/03/21 05:21:43;;;;;;;2.47;2.28;;;6.70;99.90;;;;;;5050228;28;20683;-69
2023/03/21 05:24:14;;;;;;;1.98;1.88;;;6.60;99.90;;;;;;5050358;28;20335;-69
2023/03/21 05:26:41;;;;;;;3.00;2.00;;;6.60;99.90;;;;;;5059699;28;20220;-69
2023/03/21 05:29:10;;;;;;;2.80;1.60;;;6.60;99.90;;;;;;5061523;28;20284;-69
2023/03/21 05:31:36;;;;;;;4.15;1.95;;;6.60;99.90;;;;;;5049644;28;20581;-70
2023/03/21 05:34:03;;;;;;;4.53;2.38;;;6.50;99.90;;;;;;5050382;28;20213;-69
2023/03/21 05:36:32;;;;;;;4.05;2.58;;;6.50;99.90;;;;;;5058613;28;20580;-70
2023/03/21 05:39:00;;;;;;;2.40;1.98;;;6.50;99.90;;;;;;5058652;28;20197;-70
2023/03/21 05:41:27;;;;;;;2.50;2.30;;;6.50;99.90;;;;;;5058346;28;20212;-70
2023/03/21 05:43:54;;;;;;;2.75;2.25;;;6.60;99.90;;;;;;5050183;28;20581;-70
2023/03/21 05:46:21;;;;;;;4.03;2.53;;;6.60;99.90;;;;;;5049882;28;20209;-70
2023/03/21 05:48:47;;;;;;;2.58;2.35;;;6.60;99.90;;;;;;5058651;28;20206;-70
2023/03/21 05:51:14;;;;;;;3.15;2.08;;;6.70;99.90;;;;;;5054408;28;20570;-70
2023/03/21 05:53:41;;;;;;;2.83;2.13;;;6.70;99.90;;;;;;5054781;28;20225;-69
2023/03/21 05:56:10;;;;;;;2.65;2.30;;;6.80;99.90;;;;;;5052191;28;20196;-70
2023/03/21 05:58:37;;;;;;;2.92;2.30;;;6.80;99.90;;;;;;5067013;28;20208;-70
2023/03/21 06:01:04;;;;;;;2.25;2.05;;;6.80;99.90;;;;;;5063009;28;20303;-70
2023/03/21 06:03:31;;;;;;;2.00;1.80;;;6.80;99.90;;;;;;5062367;28;20208;-70
2023/03/21 06:05:57;;;;;;;4.32;2.00;;;6.80;99.90;;;;;;5053765;28;20199;-70
2023/03/21 06:08:24;;;;;;;2.40;2.13;;;6.80;99.90;;;;;;5055703;28;20579;-69
2023/03/21 06:10:51;;;;;;;4.53;2.22;;;6.90;99.90;;;;;;5069606;28;20200;-70
2023/03/21 06:13:19;;;;;;;2.95;1.88;;;6.90;99.90;;;;;;5063770;28;20276;-70
2023/03/21 06:15:45;;;;;;;2.72;2.45;;;7.00;99.90;;;;;;5068184;28;20209;-70
2023/03/21 06:18:12;;;;;;;2.30;2.05;;;7.00;99.90;;;;;;5069485;28;20667;-70
2023/03/21 06:20:39;;;;;;;3.08;1.70;;;7.00;99.90;;;;;;5052400;28;20262;-69
2023/03/21 06:23:06;;;;;;;2.70;2.15;;;7.10;99.90;;;;;;5049816;28;20225;-69
2023/03/21 06:25:32;;;;;;;2.80;2.38;;;7.10;99.90;;;;;;5049850;28;20228;-69
2023/03/21 06:27:59;;;;;;;2.42;1.90;;;7.20;99.90;;;;;;5069761;28;20196;-69
2023/03/21 06:30:27;;;;;;;2.50;2.25;;;7.20;99.90;;;;;;5069713;28;20197;-72
2023/03/21 06:32:54;;;;;;;2.38;2.10;;;7.30;99.90;;;;;;5050357;28;20670;-71
2023/03/21 06:35:21;;;;;;;3.05;2.10;;;7.30;99.90;;;;;;5049784;28;20228;-71
2023/03/21 06:37:48;;;;;;;2.22;2.00;;;7.30;99.90;;;;;;5067357;28;20203;-71
2023/03/21 06:40:15;;;;;;;2.85;2.17;;;7.40;99.90;;;;;;5053942;28;20225;-71
2023/03/21 06:42:42;;;;;;;3.60;2.20;;;7.40;99.90;;;;;;5054264;28;20209;-71
2023/03/21 06:45:09;;;;;;;2.45;2.25;;;7.40;99.90;;;;;;5067022;28;20212;-70
2023/03/21 06:47:37;;;;;;;2.28;2.05;;;7.40;99.90;;;;;;5073538;28;20208;-70
2023/03/21 06:50:05;;;;;;;2.30;2.10;;;7.50;99.90;;;;;;5065993;28;20196;-69
2023/03/21 06:52:32;;;;;;;3.72;2.05;;;7.60;99.90;;;;;;5065987;28;20193;-69
2023/03/21 06:54:59;;;;;;;2.30;2.10;;;7.70;99.90;;;;;;5057446;28;20216;-70
2023/03/21 06:57:26;;;;;;;2.22;1.90;;;7.80;99.90;;;;;;5070321;28;20560;-71
2023/03/21 06:59:52;;;;;;;2.35;2.15;;;7.90;99.90;;;;;;5053585;28;20215;-71
2023/03/21 07:02:19;;;;;;;4.22;2.13;;;8.10;99.90;;;;;;5053210;28;20225;-71
2023/03/21 07:04:47;;;;;;;3.10;2.38;;;8.20;99.90;;;;;;5055103;28;20216;-71
2023/03/21 07:07:14;;;;;;;2.78;2.13;;;8.40;99.90;;;;;;5067924;28;20551;-70
2023/03/21 07:09:41;;;;;;;1.65;1.55;;;8.60;99.90;;;;;;5053254;28;20255;-70
2023/03/21 07:12:08;;;;;;;2.83;2.10;;;8.80;99.90;;;;;;5053074;28;20189;-70
2023/03/21 07:14:35;;;;;;;2.50;2.13;;;9.00;99.90;;;;;;5061830;28;20619;-69
2023/03/21 07:17:02;;;;;;;2.38;2.10;;;9.20;99.90;;;;;;5072860;28;20196;-70
2023/03/21 07:19:28;;;;;;;2.55;2.30;;;9.60;99.90;;;;;;5073360;28;20254;-70
2023/03/21 07:21:56;;;;;;;2.65;1.65;;;9.90;99.90;;;;;;5072937;28;20216;-71
2023/03/21 07:24:23;;;;;;;1.58;1.48;;;10.20;99.90;;;;;;5073224;28;20220;-71
2023/03/21 07:26:50;;;;;;;3.05;1.85;;;10.60;99.90;;;;;;5072716;28;20200;-71
2023/03/21 07:29:20;;;;;;;2.05;1.85;;;10.80;99.90;;;;;;5073656;28;20250;-71
2023/03/21 07:31:47;;;;;;;2.63;1.80;;;11.00;99.90;;;;;;5058479;28;20189;-71
2023/03/21 07:34:14;;;;;;;3.70;2.03;;;11.30;99.90;;;;;;5059312;28;20225;-70
2023/03/21 07:36:41;;;;;;;2.80;1.80;;;11.40;99.90;;;;;;5057333;28;20209;-69
2023/03/21 07:39:09;;;;;;;3.05;2.00;;;11.50;99.90;;;;;;5052802;28;20223;-69
2023/03/21 07:41:36;;;;;;;2.45;1.88;;;11.90;99.90;;;;;;5052541;28;20231;-69
2023/03/21 07:44:02;;;;;;;2.88;1.98;;;12.40;99.90;;;;;;5052666;28;20224;-69
2023/03/21 07:46:29;;;;;;;2.35;2.15;;;13.20;99.90;;;;;;5052537;28;20451;-69
2023/03/21 07:48:56;;;;;;;2.00;1.70;;;13.10;99.90;;;;;;5052038;28;20201;-69
2023/03/21 07:51:23;;;;;;;2.17;1.93;;;13.20;99.90;;;;;;5052270;28;20460;-69
2023/03/21 07:53:49;;;;;;;3.10;1.90;;;13.50;99.90;;;;;;5052412;28;20487;-69
2023/03/21 07:56:17;;;;;;;2.57;2.30;;;13.60;99.90;;;;;;5051734;28;20854;-70
2023/03/21 07:58:44;;;;;;;2.37;2.10;;;13.20;99.90;;;;;;5052232;28;20471;-69
2023/03/21 08:01:11;;;;;;;2.50;1.83;;;13.40;99.90;;;;;;5066211;28;20509;-69
2023/03/21 08:03:38;;;;;;;1.90;1.67;;;13.90;99.90;;;;;;5074046;28;20561;-72
2023/03/21 08:06:05;;;;;;;2.20;2.03;;;14.30;99.90;;;;;;5072873;28;20459;-72
2023/03/21 08:08:32;;;;;;;2.20;2.00;;;14.50;99.90;;;;;;5065175;28;20463;-72
2023/03/21 08:10:59;;;;;;;3.63;1.87;;;14.30;99.90;;;;;;5044844;28;20464;-71
2023/03/21 08:16:02;;;;;;;2.43;2.00;;;14.10;99.90;;;;;;4813480;22;20773;-76
2023/03/21 08:18:29;;;;;;;4.10;1.53;;;14.40;99.90;;;;;;5066794;28;20958;-79
2023/03/21 08:20:57;;;;;;;1.60;1.50;;;15.30;99.90;;;;;;5061688;28;20552;-78
2023/03/21 08:23:24;;;;;;;2.60;1.77;;;16.50;99.50;;;;;;5059409;28;20463;-78
2023/03/21 08:25:52;;;;;;;2.20;2.00;;;17.40;98.60;;;;;;5037725;28;20464;-79
2023/03/21 08:28:20;;;;;;;2.83;1.93;;;17.10;97.10;;;;;;5034483;28;20511;-75
2023/03/21 08:30:46;;;;;;;4.50;2.20;;;16.90;97.60;;;;;;5042051;28;20467;-75
2023/03/21 08:33:16;;;;;;;1.87;1.77;;;17.30;98.40;;;;;;5052082;28;20463;-75
2023/03/21 08:35:43;;;;;;;2.90;2.20;;;17.90;97.60;;;;;;5041824;28;20464;-74
2023/03/21 08:38:10;;;;;;;2.17;1.97;;;18.20;95.60;;;;;;5031662;28;20460;-75
2023/03/21 08:40:36;;;;;;;1.80;1.70;;;18.10;94.20;;;;;;5031544;28;20496;-75
2023/03/21 08:43:04;;;;;;;1.60;1.50;;;18.30;92.60;;;;;;5030877;28;21089;-74
2023/03/21 08:45:31;;;;;;;1.77;1.63;;;18.90;92.10;;;;;;5043464;28;20510;-75
2023/03/21 08:47:58;;;;;;;1.60;1.50;;;19.10;92.00;;;;;;5041882;28;20460;-72
2023/03/21 08:50:30;;;;;;;2.07;1.43;;;19.30;92.00;;;;;;5050430;28;21264;-72
2023/03/21 08:52:57;;;;;;;3.10;1.50;;;19.50;92.20;;;;;;5038671;28;20468;-71
2023/03/21 08:55:25;;;;;;;1.87;1.60;;;20.60;91.40;;;;;;5037954;28;20487;-74
2023/03/21 08:57:52;;;;;;;2.40;1.27;;;21.20;84.20;;;;;;5030616;28;20559;-73
2023/03/21 09:00:21;;;;;;;2.83;1.37;;;21.50;82.90;;;;;;5036200;28;20948;-74
2023/03/21 09:02:53;;;;;;;1.60;1.47;;;21.60;76.90;;;;;;5049450;28;20494;-73
2023/03/21 09:05:21;;;;;;;1.90;1.30;;;21.90;79.10;;;;;;5041331;28;20487;-72
2023/03/21 09:07:51;;;;;;;1.23;1.13;;;22.10;76.30;;;;;;5031665;28;20530;-73
2023/03/21 09:10:21;;;;;;;1.40;1.10;;;21.50;78.00;;;;;;5039078;28;20549;-73
2023/03/21 09:12:49;;;;;;;2.33;1.47;;;21.50;80.60;;;;;;5031053;28;20456;-73
2023/03/21 09:15:19;;;;;;;3.33;1.63;;;22.10;78.80;;;;;;5035289;28;20797;-74
2023/03/21 09:17:47;;;;;;;2.07;1.57;;;22.10;79.30;;;;;;5039116;28;20527;-75
2023/03/21 09:20:17;;;;;;;1.90;1.60;;;21.80;79.50;;;;;;5031800;28;20460;-72
2023/03/21 09:22:46;;;;;;;1.60;1.50;;;21.60;82.60;;;;;;5033733;28;20475;-74
2023/03/21 09:25:19;;;;;;;1.60;1.50;;;21.90;81.10;;;;;;5048200;28;20854;-73
2023/03/21 09:27:46;;;;;;;2.30;1.60;;;22.40;83.20;;;;;;5034608;28;20551;-75
2023/03/21 09:30:19;;;;;;;2.80;1.73;;;21.90;81.10;;;;;;5032848;28;20453;-73
2023/03/21 09:32:47;;;;;;;1.83;1.70;;;22.20;83.10;;;;;;5039939;28;20455;-73
2023/03/21 09:35:15;;;;;;;1.63;1.37;;;22.90;82.40;;;;;;5050914;28;20471;-73
2023/03/21 09:37:41;;;;;;;1.90;1.50;;;23.20;79.00;;;;;;5049890;28;20973;-72
2023/03/21 09:40:18;;;;;;;2.40;2.20;;;23.20;80.50;;;;;;5050596;28;20517;-75
2023/03/21 09:42:57;;;;;;;1.50;1.40;;;22.40;80.90;;;;;;5049506;28;20517;-74
2023/03/21 09:45:33;;;;;;;2.27;1.83;;;22.50;81.00;;;;;;5050884;28;20554;-74
2023/03/21 09:47:59;;;;;;;2.13;1.50;;;23.00;81.70;;;;;;5049955;28;20478;-75
2023/03/21 09:50:31;;;;;;;2.23;1.63;;;23.40;79.60;;;;;;5050495;28;20901;-73
2023/03/21 09:53:00;;;;;;;2.07;1.87;;;24.30;79.60;;;;;;5036660;28;20548;-74
2023/03/21 09:55:37;;;;;;;1.63;1.53;;;24.60;77.20;;;;;;5035646;28;20496;-75
2023/03/21 09:58:16;;;;;;;2.37;1.60;;;24.70;77.00;;;;;;5035421;28;20467;-74
2023/03/21 10:00:46;;;;;;;1.97;1.57;;;24.90;77.00;;;;;;5034484;28;20464;-74
2023/03/21 10:03:22;;;;;;;1.57;1.47;;;24.70;76.10;;;;;;5030889;28;20563;-74
2023/03/21 10:05:51;;;;;;;1.50;1.20;;;24.50;77.70;;;;;;5038429;28;21103;-74
2023/03/21 10:08:33;;;;;;;1.37;1.20;;;24.70;78.30;;;;;;5049835;28;20708;-74
2023/03/21 10:11:09;;;;;;;1.73;1.43;;;25.10;72.50;;;;;;5038569;28;21060;-74
2023/03/21 10:13:42;;;;;;;2.33;1.50;;;24.60;72.70;;;;;;5030102;28;20492;-74
2023/03/21 10:16:14;;;;;;;1.40;1.20;;;24.20;70.10;;;;;;5029443;28;20487;-74
2023/03/21 10:18:43;;;;;;;2.03;1.00;;;22.90;69.50;;;;;;5045043;28;20525;-72
2023/03/21 10:21:19;;;;;;;1.60;1.23;;;22.40;73.90;;;;;;5038211;28;20548;-76
2023/03/21 10:23:46;;;;;;;1.40;1.30;;;22.90;74.00;;;;;;5047669;28;20570;-73
2023/03/21 10:26:14;;;;;;;1.53;1.40;;;24.20;75.80;;;;;;5050640;28;20460;-76
2023/03/21 10:28:43;;;;;;;1.30;1.00;;;24.00;72.30;;;;;;5049575;28;20534;-75
2023/03/21 10:31:15;;;;;;;1.50;1.20;;;23.80;72.10;;;;;;5050397;28;20960;-74
2023/03/21 10:33:44;;;;;;;1.50;1.40;;;23.50;73.00;;;;;;5050232;28;20507;-75
2023/03/21 10:36:16;;;;;;;1.23;1.13;;;23.30;74.80;;;;;;5046483;28;20496;-75
2023/03/21 10:38:47;;;;;;;1.30;1.20;;;22.70;78.20;;;;;;5031723;28;20464;-76
2023/03/21 10:41:16;;;;;;;1.30;1.20;;;22.80;76.20;;;;;;5031262;28;20461;-73
2023/03/21 10:43:44;;;;;;;2.03;1.53;;;23.40;76.60;;;;;;5030328;28;20503;-74
2023/03/21 10:46:17;;;;;;;1.43;1.20;;;23.40;75.20;;;;;;5049886;28;20478;-74
2023/03/21 10:48:46;;;;;;;1.63;1.50;;;23.20;78.10;;;;;;5049332;28;20959;-74
2023/03/21 10:51:18;;;;;;;1.60;1.30;;;23.10;78.60;;;;;;5050352;28;20456;-73
2023/03/21 10:53:56;;;;;;;2.10;1.40;;;22.80;74.60;;;;;;5038392;28;20529;-75
2023/03/21 10:56:34;;;;;;;1.10;1.00;;;21.80;75.20;;;;;;5049591;28;20463;-74
2023/03/21 10:59:02;;;;;;;1.30;1.00;;;21.70;75.00;;;;;;5049359;28;20502;-74
2023/03/21 11:01:39;;;;;;;1.47;1.00;;;21.60;76.10;;;;;;5049917;28;20468;-73
2023/03/21 11:04:10;;;;;;;2.20;1.50;;;21.70;72.80;;;;;;5049419;28;20487;-74
2023/03/21 11:06:38;;;;;;;1.27;1.00;;;21.00;73.10;;;;;;5049880;28;20471;-77
2023/03/21 11:09:11;;;;;;;1.40;1.17;;;20.50;76.40;;;;;;5044173;28;20498;-74
2023/03/21 11:11:51;;;;;;;1.10;0.90;;;20.20;78.00;;;;;;5031578;28;20884;-74
2023/03/21 11:14:42;;;;;;;2.17;1.30;;;20.10;77.90;;;;;;5043456;28;20483;-72
2023/03/21 11:17:24;;;;;;;1.57;1.23;;;20.10;78.40;;;;;;5051297;28;20468;-75
2023/03/21 11:19:57;;;;;;;1.40;1.10;;;19.80;78.70;;;;;;5051248;28;20463;-73
2023/03/21 11:22:26;;;;;;;1.97;1.50;;;19.60;77.40;;;;;;5052455;28;20455;-73
2023/03/21 11:24:57;;;;;;;1.13;1.03;;;19.00;78.00;;;;;;5052582;28;20486;-74
2023/03/21 11:27:28;;;;;;;1.40;1.30;;;18.90;78.50;;;;;;5055227;28;20507;-74
2023/03/21 11:30:19;;;;;;;1.33;1.23;;;18.70;76.40;;;;;;5054542;28;20898;-73
2023/03/21 11:32:46;;;;;;;1.60;1.43;;;18.00;76.50;;;;;;5053990;28;20487;-74
2023/03/21 11:35:21;;;;;;;1.30;1.20;;;17.40;78.60;;;;;;5054950;28;20870;-74
2023/03/21 11:37:52;;;;;;;1.33;1.17;;;17.30;80.10;;;;;;5054376;28;20465;-74
2023/03/21 11:40:22;;;;;;;1.90;1.37;;;17.20;80.50;;;;;;5054244;28;20867;-73
2023/03/21 11:42:52;;;;;;;1.93;1.30;;;17.30;82.50;;;;;;5055146;28;20851;-75
2023/03/21 11:45:21;;;;;;;1.37;1.20;;;17.40;82.30;;;;;;5054623;28;20483;-74
2023/03/21 11:47:49;;;;;;;1.50;1.37;;;17.60;80.60;;;;;;5052311;28;20716;-73
2023/03/21 11:50:26;;;;;;;1.73;1.60;;;17.60;81.60;;;;;;5054310;28;20467;-74
2023/03/21 11:53:10;;;;;;;1.37;1.27;;;17.60;81.50;;;;;;5054594;28;20513;-75
2023/03/21 11:55:46;;;;;;;2.40;1.67;;;17.70;80.70;;;;;;5054525;28;20486;-74
2023/03/21 11:58:32;;;;;;;2.20;1.40;;;17.50;77.70;;;;;;5054634;28;20521;-76
2023/03/21 12:01:08;;;;;;;1.80;1.60;;;17.10;78.90;;;;;;5034343;28;20464;-74
2023/03/21 12:04:03;;;;;;;1.90;1.37;;;16.50;79.20;;;;;;5030448;28;20510;-74
2023/03/21 12:06:36;;;;;;;1.40;1.27;;;16.20;80.40;;;;;;5033775;28;21295;-74
2023/03/21 12:09:19;;;;;;;1.57;1.10;;;16.30;80.90;;;;;;5042487;28;20460;-73
2023/03/21 12:12:03;;;;;;;2.00;1.87;;;16.20;81.60;;;;;;5051525;28;20489;-74
2023/03/21 12:14:42;;;;;;;1.60;1.40;;;16.00;83.10;;;;;;5031500;28;20492;-74
2023/03/21 12:17:18;;;;;;;2.20;1.43;;;15.80;83.60;;;;;;5031386;28;20832;-73
2023/03/21 12:20:12;;;;;;;1.80;1.63;;;15.80;84.60;;;;;;5031598;28;21283;-74
2023/03/21 12:22:50;;;;;;;1.77;1.50;;;16.10;85.80;;;;;;5031179;28;20491;-74
2023/03/21 12:25:26;;;;;;;1.93;1.70;;;16.30;84.40;;;;;;5031724;28;20559;-75
2023/03/21 12:28:02;;;;;;;1.60;1.50;;;16.20;84.60;;;;;;5031208;28;20966;-73
2023/03/21 12:30:43;;;;;;;1.73;1.60;;;16.30;86.00;;;;;;5031796;28;20488;-74
2023/03/21 12:33:31;;;;;;;1.40;1.30;;;16.50;85.90;;;;;;5030853;28;20955;-74
2023/03/21 12:36:09;;;;;;;2.07;1.80;;;16.80;84.90;;;;;;5030590;28;20547;-74
2023/03/21 12:38:43;;;;;;;2.07;1.93;;;17.10;84.30;;;;;;5031732;28;20456;-73
2023/03/21 12:41:22;;;;;;;2.03;1.53;;;17.30;85.90;;;;;;5031831;28;20519;-75
2023/03/21 12:43:54;;;;;;;2.80;1.50;;;17.60;85.10;;;;;;5031166;28;20923;-75
2023/03/21 12:46:27;;;;;;;2.07;1.40;;;17.90;84.80;;;;;;5044217;28;20463;-76
2023/03/21 12:48:57;;;;;;;1.93;1.40;;;18.20;83.50;;;;;;5048439;28;20459;-75
2023/03/21 12:51:31;;;;;;;1.83;1.30;;;18.50;83.40;;;;;;5045528;28;20833;-74
2023/03/21 12:54:05;;;;;;;1.93;1.73;;;18.80;84.20;;;;;;5041395;28;20499;-74
2023/03/21 12:56:38;;;;;;;1.83;1.20;;;19.00;83.60;;;;;;5051649;28;20462;-73
2023/03/21 12:59:16;;;;;;;1.97;1.20;;;19.10;83.20;;;;;;5051338;28;20455;-73
2023/03/21 13:01:46;;;;;;;1.27;1.10;;;19.20;82.10;;;;;;5050826;28;20692;-74
2023/03/21 13:04:34;;;;;;;1.40;1.07;;;19.10;75.80;;;;;;5051114;28;20486;-74
2023/03/21 13:07:05;;;;;;;1.30;1.13;;;19.00;74.40;;;;;;5042560;28;20460;-75
2023/03/21 13:09:36;;;;;;;1.77;1.30;;;19.10;72.10;;;;;;5045389;28;20496;-74
2023/03/21 13:12:39;;;;;;;1.63;1.20;;;19.10;72.30;;;;;;5037289;28;20976;-73
2023/03/21 13:15:18;;;;;;;1.20;0.90;;;19.10;72.20;;;;;;5018739;28;20576;-75
2023/03/21 13:17:52;;;;;;;1.20;1.07;;;18.70;70.10;;;;;;5035360;28;20488;-73